Time,TemperatureF,DewpointF,PressureIn,WindDirection,WindDirectionDegrees,WindSpeedMPH,WindSpeedGustMPH,Humidity,HourlyPrecipIn,Conditions,Clouds,dailyrainin,SoftwareType,DateUTC
2013-10-17 00:11:00,68.2,-35.9,29.65,NW,315,5.3,-999.0,1,-99.99,,,0.00,Acu-Link.com,2013-10-17 05:11:00,
2013-10-17 00:26:00,68.2,-35.9,29.65,NNE,22,4.2,-999.0,1,-99.99,,,0.00,Acu-Link.com,2013-10-17 05:26:00,
2013-10-17 00:41:00,67.8,-36.1,29.64,East,90,4.7,-999.0,1,-99.99,,,0.00,Acu-Link.com,2013-10-17 05:41:00,
2013-10-17 00:57:00,67.6,-36.3,29.64,North,0,6.3,-999.0,1,-99.99,,,0.00,Acu-Link.com,2013-10-17 05:57:00,
2013-10-17 01:12:00,67.5,-36.3,29.64,NNW,337,4.7,-999.0,1,-99.99,,,0.00,Acu-Link.com,2013-10-17 06:12:00,
2013-10-17 01:29:00,67.3,-36.4,29.64,West,270,2.7,-999.0,1,-99.99,,,0.00,Acu-Link.com,2013-10-17 06:29:00,
2013-10-17 01:44:00,66.9,-36.7,29.63,NNE,22,6.3,-999.0,1,-99.99,,,0.00,Acu-Link.com,2013-10-17 06:44:00,
2013-10-17 02:00:00,66.9,-36.7,29.63,NW,315,4.7,-999.0,1,-99.99,,,0.00,Acu-Link.com,2013-10-17 07:00:00,
2013-10-17 02:15:00,66.9,-36.7,29.63,NNW,337,4.2,-999.0,1,-99.99,,,0.00,Acu-Link.com,2013-10-17 07:15:00,
2013-10-17 02:31:00,66.9,-36.7,29.63,NNW,337,3.2,-999.0,1,-99.99,,,0.00,Acu-Link.com,2013-10-17 07:31:00,
2013-10-17 02:47:00,66.9,-36.7,29.63,West,270,1.7,-999.0,1,-99.99,,,0.00,Acu-Link.com,2013-10-17 07:47:00,
2013-10-17 03:02:00,66.9,-36.7,29.63,NNW,337,4.2,-999.0,1,-99.99,,,0.00,Acu-Link.com,2013-10-17 08:02:00,
2013-10-17 03:17:00,66.9,-36.7,29.63,WNW,292,6.3,-999.0,1,-99.99,,,0.00,Acu-Link.com,2013-10-17 08:17:00,
2013-10-17 03:32:00,66.7,-36.8,29.65,NNE,22,3.7,-999.0,1,-99.99,,,0.00,Acu-Link.com,2013-10-17 08:32:00,
2013-10-17 03:47:00,66.4,-37.0,29.64,North,0,4.7,-999.0,1,-99.99,,,0.00,Acu-Link.com,2013-10-17 08:47:00,
2013-10-17 04:03:00,66.4,-37.0,29.65,SW,225,3.7,-999.0,1,-99.99,,,0.00,Acu-Link.com,2013-10-17 09:03:00,
2013-10-17 04:18:00,66.2,-37.1,29.64,NNW,337,5.8,-999.0,1,-99.99,,,0.00,Acu-Link.com,2013-10-17 09:18:00,
2013-10-17 04:33:00,65.3,-37.6,29.65,NNW,337,3.7,-999.0,1,-99.99,,,0.00,Acu-Link.com,2013-10-17 09:33:00,
2013-10-17 04:49:00,65.3,64.7,29.65,West,270,5.3,-999.0,98,-99.99,,,0.00,Acu-Link.com,2013-10-17 09:49:00,
2013-10-17 05:04:00,65.3,56.8,29.65,West,270,3.7,-999.0,74,-99.99,,,0.00,Acu-Link.com,2013-10-17 10:04:00,
2013-10-17 05:19:00,65.3,-37.6,29.65,WNW,292,4.7,-999.0,1,-99.99,,,0.00,Acu-Link.com,2013-10-17 10:19:00,
2013-10-17 05:35:00,64.9,12.9,29.67,NNW,337,2.2,-999.0,13,-99.99,,,0.00,Acu-Link.com,2013-10-17 10:35:00,
2013-10-17 05:50:00,64.9,26.2,29.67,NW,315,4.2,-999.0,23,-99.99,,,0.00,Acu-Link.com,2013-10-17 10:50:00,
2013-10-17 06:20:00,64.8,64.2,29.68,NW,315,3.7,-999.0,98,-99.99,,,0.00,Acu-Link.com,2013-10-17 11:20:00,
2013-10-17 06:35:00,64.8,-12.2,29.69,NNW,337,5.3,-999.0,4,-99.99,,,0.00,Acu-Link.com,2013-10-17 11:35:00,
2013-10-17 06:51:00,64.4,63.8,29.68,NNW,337,5.3,-999.0,98,-99.99,,,0.00,Acu-Link.com,2013-10-17 11:51:00,
2013-10-17 07:06:00,64.2,-38.3,29.69,WNW,292,2.7,-999.0,1,-99.99,,,0.00,Acu-Link.com,2013-10-17 12:06:00,
2013-10-17 07:22:00,64.0,-38.4,29.69,NNE,22,3.2,-999.0,1,-99.99,,,0.00,Acu-Link.com,2013-10-17 12:22:00,
2013-10-17 07:37:00,63.9,63.3,29.70,NNW,337,5.3,-999.0,98,-99.99,,,0.00,Acu-Link.com,2013-10-17 12:37:00,
2013-10-17 07:52:00,64.0,-38.4,29.71,North,0,8.9,-999.0,1,-99.99,,,0.00,Acu-Link.com,2013-10-17 12:52:00,
2013-10-17 08:07:00,63.9,-38.5,29.72,West,270,8.3,-999.0,1,-99.99,,,0.00,Acu-Link.com,2013-10-17 13:07:00,
2013-10-17 08:23:00,64.2,-38.3,29.71,NE,45,5.3,-999.0,1,-99.99,,,0.00,Acu-Link.com,2013-10-17 13:23:00,
2013-10-17 08:38:00,64.4,62.0,29.72,NNE,22,4.7,-999.0,92,-99.99,,,0.00,Acu-Link.com,2013-10-17 13:38:00,
2013-10-17 08:53:00,64.4,-38.2,29.73,North,0,6.8,-999.0,1,-99.99,,,0.00,Acu-Link.com,2013-10-17 13:53:00,
2013-10-17 09:08:00,64.8,-37.9,29.73,NW,315,5.3,-999.0,1,-99.99,,,0.00,Acu-Link.com,2013-10-17 14:08:00,
2013-10-17 09:23:00,65.8,-37.3,29.73,ENE,67,4.2,-999.0,1,-99.99,,,0.00,Acu-Link.com,2013-10-17 14:23:00,
2013-10-17 09:38:00,66.0,-37.2,29.73,NNE,22,6.8,-999.0,1,-99.99,,,0.00,Acu-Link.com,2013-10-17 14:38:00,
2013-10-17 09:53:00,66.6,-36.9,29.74,North,0,4.7,-999.0,1,-99.99,,,0.00,Acu-Link.com,2013-10-17 14:53:00,
2013-10-17 10:09:00,67.6,-36.3,29.74,NNW,337,4.2,-999.0,1,-99.99,,,0.00,Acu-Link.com,2013-10-17 15:09:00,
2013-10-17 10:24:00,67.8,-36.1,29.75,NNE,22,5.3,-999.0,1,-99.99,,,0.00,Acu-Link.com,2013-10-17 15:24:00,
2013-10-17 10:39:00,67.5,-36.3,29.75,NNW,337,5.3,-999.0,1,-99.99,,,0.00,Acu-Link.com,2013-10-17 15:39:00,
2013-10-17 10:54:00,67.8,-36.1,29.75,NNE,22,6.3,-999.0,1,-99.99,,,0.00,Acu-Link.com,2013-10-17 15:54:00,
2013-10-17 11:09:00,67.5,-36.3,29.76,NNE,22,7.3,-999.0,1,-99.99,,,0.00,Acu-Link.com,2013-10-17 16:09:00,
2013-10-17 11:24:00,66.7,-36.8,29.76,NNE,22,10.4,-999.0,1,-99.99,,,0.00,Acu-Link.com,2013-10-17 16:24:00,
2013-10-17 11:39:00,66.4,-37.0,29.75,NNE,22,4.7,-999.0,1,-99.99,,,0.00,Acu-Link.com,2013-10-17 16:39:00,
2013-10-17 11:54:00,66.4,-37.0,29.75,NW,315,6.3,-999.0,1,-99.99,,,0.00,Acu-Link.com,2013-10-17 16:54:00,
2013-10-17 12:09:00,66.2,-37.1,29.75,NNW,337,7.3,-999.0,1,-99.99,,,0.00,Acu-Link.com,2013-10-17 17:09:00,
2013-10-17 12:24:00,66.2,-37.1,29.73,NNW,337,3.2,-999.0,1,-99.99,,,0.00,Acu-Link.com,2013-10-17 17:24:00,
2013-10-17 12:39:00,65.8,-37.3,29.73,NNE,22,3.2,-999.0,1,-99.99,,,0.00,Acu-Link.com,2013-10-17 17:39:00,
2013-10-17 12:55:00,65.7,-37.4,29.73,NNW,337,4.7,-999.0,1,-99.99,,,0.00,Acu-Link.com,2013-10-17 17:55:00,
2013-10-17 13:10:00,65.8,-37.3,29.72,NW,315,8.9,-999.0,1,-99.99,,,0.00,Acu-Link.com,2013-10-17 18:10:00,
2013-10-17 13:25:00,66.2,-37.1,29.71,WNW,292,4.7,-999.0,1,-99.99,,,0.00,Acu-Link.com,2013-10-17 18:25:00,
2013-10-17 13:40:00,66.2,-37.1,29.71,NW,315,3.7,-999.0,1,-99.99,,,0.00,Acu-Link.com,2013-10-17 18:40:00,
2013-10-17 13:55:00,66.2,-37.1,29.70,WNW,292,8.3,-999.0,1,-99.99,,,0.00,Acu-Link.com,2013-10-17 18:55:00,
2013-10-17 14:10:00,66.6,-36.9,29.69,NNE,22,5.8,-999.0,1,-99.99,,,0.00,Acu-Link.com,2013-10-17 19:10:00,
2013-10-17 14:25:00,66.4,-37.0,29.69,NNW,337,5.3,-999.0,1,-99.99,,,0.00,Acu-Link.com,2013-10-17 19:25:00,
2013-10-17 14:40:00,66.2,-37.1,29.69,West,270,6.8,-999.0,1,-99.99,,,0.00,Acu-Link.com,2013-10-17 19:40:00,
2013-10-17 14:55:00,66.7,-36.8,29.69,NNW,337,7.3,-999.0,1,-99.99,,,0.00,Acu-Link.com,2013-10-17 19:55:00,
2013-10-17 15:10:00,65.7,-37.4,29.69,NW,315,5.8,-999.0,1,-99.99,,,0.00,Acu-Link.com,2013-10-17 20:10:00,
2013-10-17 15:25:00,66.0,-37.2,29.68,NNW,337,5.8,-999.0,1,-99.99,,,0.00,Acu-Link.com,2013-10-17 20:25:00,
2013-10-17 15:40:00,65.3,-37.6,29.68,ENE,67,5.8,-999.0,1,-99.99,,,0.00,Acu-Link.com,2013-10-17 20:40:00,
2013-10-17 15:56:00,66.0,-37.2,29.68,South,180,3.2,-999.0,1,-99.99,,,0.00,Acu-Link.com,2013-10-17 20:56:00,
2013-10-17 16:11:00,66.4,-37.0,29.67,NNE,22,6.3,-999.0,1,-99.99,,,0.00,Acu-Link.com,2013-10-17 21:11:00,
2013-10-17 16:26:00,66.6,-36.9,29.67,NNE,22,6.3,-999.0,1,-99.99,,,0.00,Acu-Link.com,2013-10-17 21:26:00,
2013-10-17 16:41:00,66.4,-37.0,29.68,NNW,337,6.8,-999.0,1,-99.99,,,0.00,Acu-Link.com,2013-10-17 21:41:00,
2013-10-17 16:56:00,66.7,-36.8,29.68,NNW,337,7.8,-999.0,1,-99.99,,,0.00,Acu-Link.com,2013-10-17 21:56:00,
2013-10-17 17:11:00,68.9,-35.5,29.68,North,0,3.2,-999.0,1,-99.99,,,0.00,Acu-Link.com,2013-10-17 22:11:00,
2013-10-17 17:26:00,69.6,-35.1,29.67,NW,315,3.7,-999.0,1,-99.99,,,0.00,Acu-Link.com,2013-10-17 22:26:00,
2013-10-17 17:42:00,70.0,-34.8,29.67,NE,45,4.2,-999.0,1,-99.99,,,0.00,Acu-Link.com,2013-10-17 22:42:00,
2013-10-17 17:57:00,69.8,-34.9,29.67,NE,45,4.2,-999.0,1,-99.99,,,0.00,Acu-Link.com,2013-10-17 22:57:00,
2013-10-17 18:12:00,68.7,-35.6,29.67,ENE,67,2.7,-999.0,1,-99.99,,,0.00,Acu-Link.com,2013-10-17 23:12:00,
2013-10-17 18:27:00,66.9,-36.7,29.68,ENE,67,1.7,-999.0,1,-99.99,,,0.00,Acu-Link.com,2013-10-17 23:27:00,
2013-10-17 18:42:00,65.3,-37.6,29.67,East,90,2.7,-999.0,1,-99.99,,,0.00,Acu-Link.com,2013-10-17 23:42:00,
2013-10-17 18:57:00,64.0,-38.4,29.67,East,90,1.1,-999.0,1,-99.99,,,0.00,Acu-Link.com,2013-10-17 23:57:00,
2013-10-17 19:13:00,63.0,-39.0,29.68,East,90,0.0,-999.0,1,-99.99,,,0.00,Acu-Link.com,2013-10-18 00:13:00,
2013-10-17 19:28:00,62.8,-39.2,29.68,ENE,67,0.0,-999.0,1,-99.99,,,0.00,Acu-Link.com,2013-10-18 00:28:00,
2013-10-17 19:43:00,61.7,-39.8,29.69,West,270,0.0,-999.0,1,-99.99,,,0.00,Acu-Link.com,2013-10-18 00:43:00,
2013-10-17 19:58:00,61.3,-40.1,29.69,West,270,0.0,-999.0,1,-99.99,,,0.00,Acu-Link.com,2013-10-18 00:58:00,
2013-10-17 20:14:00,60.8,-40.4,29.69,West,270,0.0,-999.0,1,-99.99,,,0.00,Acu-Link.com,2013-10-18 01:14:00,
2013-10-17 20:29:00,60.8,-40.4,29.69,East,90,0.0,-999.0,1,-99.99,,,0.00,Acu-Link.com,2013-10-18 01:29:00,
2013-10-17 20:44:00,60.6,-40.5,29.69,NNE,22,0.0,-999.0,1,-99.99,,,0.00,Acu-Link.com,2013-10-18 01:44:00,
2013-10-17 21:00:00,59.7,-41.0,29.69,WNW,292,0.0,-999.0,1,-99.99,,,0.00,Acu-Link.com,2013-10-18 02:00:00,
2013-10-17 21:15:00,59.4,-41.2,29.69,West,270,0.0,-999.0,1,-99.99,,,0.00,Acu-Link.com,2013-10-18 02:15:00,
2013-10-17 21:30:00,59.0,-41.5,29.70,West,270,0.0,-999.0,1,-99.99,,,0.00,Acu-Link.com,2013-10-18 02:30:00,
2013-10-17 21:45:00,59.5,-41.2,29.70,SW,225,0.0,-999.0,1,-99.99,,,0.00,Acu-Link.com,2013-10-18 02:45:00,
2013-10-17 22:01:00,58.6,-41.7,29.70,SW,225,0.0,-999.0,1,-99.99,,,0.00,Acu-Link.com,2013-10-18 03:01:00,
2013-10-17 22:16:00,58.1,-42.0,29.70,West,270,0.0,-999.0,1,-99.99,,,0.00,Acu-Link.com,2013-10-18 03:16:00,
2013-10-17 22:31:00,57.9,-42.1,29.70,West,270,0.0,-999.0,1,-99.99,,,0.00,Acu-Link.com,2013-10-18 03:31:00,
2013-10-17 22:46:00,57.9,-42.1,29.71,West,270,0.0,-999.0,1,-99.99,,,0.00,Acu-Link.com,2013-10-18 03:46:00,
2013-10-17 23:02:00,57.4,-42.4,29.71,West,270,0.0,-999.0,1,-99.99,,,0.00,Acu-Link.com,2013-10-18 04:02:00,
2013-10-17 23:17:00,57.2,-42.6,29.70,West,270,0.0,-999.0,1,-99.99,,,0.00,Acu-Link.com,2013-10-18 04:17:00,
2013-10-17 23:32:00,56.7,-42.9,29.70,West,270,0.0,-999.0,1,-99.99,,,0.00,Acu-Link.com,2013-10-18 04:32:00,
2013-10-17 23:47:00,56.5,-43.0,29.70,West,270,0.0,-999.0,1,-99.99,,,0.00,Acu-Link.com,2013-10-18 04:47:00,